Portada
METAR-TAF:

METAR-TAF

Aeroports :

Araraquara, São Paulo, Brasil

latitud: 21-48-16S, longitud: 048-08-25W, altitud: 711 m

Observació

L'informe es va fer fa 3 hores i 27 minuts, a les 02:00 UTC
Vent 6 kt del Sud
Temperatura 18°C
Humitat 77%
Pressió 1023 hPa
Visibilitat 10 km o més
sense núvols per sota de 1500 mi sense presència de cumulonimbus.

METAR: SBAQ 220200Z 17006KT CAVOK 18/14 Q1023

Hora: 02:27 (05:27 UTC)


TAF: manca

Observacions i pronòstics meteorològics de més de 4000 aeroports (METAR i TAF).

Les estacions disponibles són els punts grocs i vermells al mapa.

Posi el ratolí al punt desitjat per veure el nom de l'estació.

Feu clic per veure les observacions i els pronòstics meteorològics.

Per canviar el mapa: feu clic els botons verds amb una creu de color negre per apropar; al botó verd amb un guió per allunyar la imatge; o en les fletxes verdes per a mapes adjacents.


METAR-TAF: